A- A+ FrançaisEnglishEspañol中国

Services sur Internet Soldes sur Internet Des idées de cadeaux Météo Météo aéro

La météo à : Autours de vous Pau-PyrénéesBiarritz-Bayonne-Anglet Tarbes-Lourdes-PyrénéesAuch-La-Mothe

La météo aéronautique pour les pilotes, la préparation du vol avec les METAR (METeorological Aerodrome Report, message d'observation des conditions météorologiques pour l'aviation) et Les TAF (Terminal Aerodrome Forecast : message de prévision à court terme des conditions météorologiques pour l'aviation). Et les autres ressources comme les VAC (Visual Approch Chart) et les NOTAM (Notice To Airman) pour préprer les vols.

Aéroport Washington Dulles (USA) / OACI KIAD / IATA IAD

L'altitude de l'aéroport Washington Dulles est de 95 mètres. Il est situé à proximité de Washington (USA). La météo générale à 5 jours est disponible pour City of Fairfax situé à 16.9 km.

METAR de l'aéroport Washington Dulles - KIAD

KIAD 190620Z 28007KT 4SM BR BKN005 OVC060 06/04 A2976 RMK AO2 T00560039

Décodage du METAR de l'aéroport Washington Dulles (US)

METAR émis par KIAD le mardi 19 novembre 2019 à 06:20 heure TU, il y a 11 minutes.

La visibilité est de 6.4 km = 4 sm.

La température est de 6°C et le point rosée est de 4°C. Ce qui correspond à 87% d'humidité relative.

Le QNH est de 1008 hPa = 29.77 inHg

Vent de 7 kt = 13 km/h, orienté à 280°.

Nuages : Couverture nuageuse fragmentée à 500 ft = 150 mètres. Couverture nuageuse soudée à 6000 ft = 1830 mètres.

BR

RMK AO2 T00560039

TAF de l'aéroport Washington Dulles - KIAD

KIAD 190539Z 1906/2012 VRB03KT 5SM -RA BR BKN010 OVC035 FM191300 VRB03KT 5SM BR BKN035 FM191700 29004KT P6SM BKN110

KIAD 190539Z 1906/2012 VRB03KT 5SM faible RA brume couverture nuageuse fragmentée à 010 couverture nuageuse soudée à 035 FM191300 VRB03KT 5SM brume couverture nuageuse fragmentée à 035 FM191700 29004KT P6SM couverture nuageuse fragmentée à 110

Aéroport à proximité de Washington Dulles

Météo générale à 5 jours à City of Fairfax (16.9 km)Aéroport Leesburg Mun Godfrey (17 km)Aéroport Manassas Regl Davis (25 km)Aéroport Ft Belvoir Davison AAF (35 km)Aéroport Montgomery Co (35 km)Aéroport Washington National (38 km)Aéroport College Park (46 km)

VAC de l'aéroport Washington Dulles - KIAD

La carte d'approche à vue (VAC Visual Approah Chart) est fournie sans aucune garantie de son actualité. Le pilote est le seul responsable de la vérification de sa validité avant de l'utiliser opérationnellement pour préparer un vol ou l'utiliser lors de sa navigation.

VAC de KIAD

Vue aérienne de l'aéroport Washington Dulles

NOTAM de l'aéroport Washington Dulles

Les NOTAM sont fournis sans aucune garantie de leur actualité. Le pilote est le seul responsable de la vérification de sa validité avant de l'utiliser opérationnellement pour préparer un vol ou l'utiliser lors de sa navigation.

Pas de NOTAM

Sources des données